sensor_id;sensor_type;location;lat;lon;timestamp;P1;durP1;ratioP1;P2;durP2;ratioP2
6442;SDS011;3254;47.372;8.512;2023-07-13T00:01:08;9.47;;;6.20;;
6442;SDS011;3254;47.372;8.512;2023-07-13T00:04:59;6.63;;;6.03;;
6442;SDS011;3254;47.372;8.512;2023-07-13T00:12:33;9.80;;;5.60;;
6442;SDS011;3254;47.372;8.512;2023-07-13T00:16:41;7.60;;;5.67;;
6442;SDS011;3254;47.372;8.512;2023-07-13T00:24:07;6.60;;;4.60;;
6442;SDS011;3254;47.372;8.512;2023-07-13T00:31:24;4.93;;;4.53;;
6442;SDS011;3254;47.372;8.512;2023-07-13T00:35:07;7.10;;;5.17;;
6442;SDS011;3254;47.372;8.512;2023-07-13T00:38:34;6.43;;;4.40;;
6442;SDS011;3254;47.372;8.512;2023-07-13T00:42:08;5.07;;;4.60;;
6442;SDS011;3254;47.372;8.512;2023-07-13T00:49:30;6.90;;;5.40;;
6442;SDS011;3254;47.372;8.512;2023-07-13T00:52:58;5.00;;;4.57;;
6442;SDS011;3254;47.372;8.512;2023-07-13T00:56:24;4.50;;;4.10;;
6442;SDS011;3254;47.372;8.512;2023-07-13T00:59:34;6.77;;;4.80;;
6442;SDS011;3254;47.372;8.512;2023-07-13T01:03:06;5.73;;;4.93;;
6442;SDS011;3254;47.372;8.512;2023-07-13T01:06:48;6.40;;;4.93;;
6442;SDS011;3254;47.372;8.512;2023-07-13T01:09:42;5.40;;;4.80;;
6442;SDS011;3254;47.372;8.512;2023-07-13T01:13:14;5.33;;;4.77;;
6442;SDS011;3254;47.372;8.512;2023-07-13T01:16:41;7.30;;;4.77;;
6442;SDS011;3254;47.372;8.512;2023-07-13T01:20:07;7.13;;;4.80;;
6442;SDS011;3254;47.372;8.512;2023-07-13T01:23:35;10.47;;;5.67;;
6442;SDS011;3254;47.372;8.512;2023-07-13T01:27:13;8.90;;;5.13;;
6442;SDS011;3254;47.372;8.512;2023-07-13T01:30:46;6.57;;;5.10;;
6442;SDS011;3254;47.372;8.512;2023-07-13T01:34:16;5.57;;;4.83;;
6442;SDS011;3254;47.372;8.512;2023-07-13T01:37:59;6.90;;;5.07;;
6442;SDS011;3254;47.372;8.512;2023-07-13T01:41:02;6.30;;;4.60;;
6442;SDS011;3254;47.372;8.512;2023-07-13T01:44:54;10.77;;;4.77;;
6442;SDS011;3254;47.372;8.512;2023-07-13T01:52:22;5.87;;;5.27;;
6442;SDS011;3254;47.372;8.512;2023-07-13T01:56:06;4.70;;;4.33;;
6442;SDS011;3254;47.372;8.512;2023-07-13T01:59:16;5.37;;;4.63;;
6442;SDS011;3254;47.372;8.512;2023-07-13T02:02:28;5.63;;;4.77;;
6442;SDS011;3254;47.372;8.512;2023-07-13T02:06:04;4.13;;;3.83;;
6442;SDS011;3254;47.372;8.512;2023-07-13T02:09:28;4.97;;;4.67;;
6442;SDS011;3254;47.372;8.512;2023-07-13T02:12:58;4.00;;;3.70;;
6442;SDS011;3254;47.372;8.512;2023-07-13T02:16:22;3.87;;;3.53;;
6442;SDS011;3254;47.372;8.512;2023-07-13T02:19:47;5.07;;;4.43;;
6442;SDS011;3254;47.372;8.512;2023-07-13T02:23:27;4.77;;;4.37;;
6442;SDS011;3254;47.372;8.512;2023-07-13T02:26:50;4.47;;;4.13;;
6442;SDS011;3254;47.372;8.512;2023-07-13T02:30:20;3.90;;;3.53;;
6442;SDS011;3254;47.372;8.512;2023-07-13T02:33:52;6.40;;;4.53;;
6442;SDS011;3254;47.372;8.512;2023-07-13T02:37:33;5.57;;;4.57;;
6442;SDS011;3254;47.372;8.512;2023-07-13T02:40:56;9.87;;;4.20;;
6442;SDS011;3254;47.372;8.512;2023-07-13T02:44:02;9.93;;;5.47;;
6442;SDS011;3254;47.372;8.512;2023-07-13T02:47:31;5.53;;;4.60;;
6442;SDS011;3254;47.372;8.512;2023-07-13T02:51:25;9.40;;;5.13;;
6442;SDS011;3254;47.372;8.512;2023-07-13T02:55:13;6.43;;;4.90;;
6442;SDS011;3254;47.372;8.512;2023-07-13T02:58:56;8.13;;;4.83;;
6442;SDS011;3254;47.372;8.512;2023-07-13T03:02:28;6.87;;;5.00;;
6442;SDS011;3254;47.372;8.512;2023-07-13T03:06:04;5.70;;;4.93;;
6442;SDS011;3254;47.372;8.512;2023-07-13T03:09:28;12.23;;;5.27;;
6442;SDS011;3254;47.372;8.512;2023-07-13T03:13:24;6.27;;;5.70;;
6442;SDS011;3254;47.372;8.512;2023-07-13T03:16:49;7.23;;;5.40;;
6442;SDS011;3254;47.372;8.512;2023-07-13T03:20:20;6.07;;;5.50;;
6442;SDS011;3254;47.372;8.512;2023-07-13T03:23:43;5.53;;;5.10;;
6442;SDS011;3254;47.372;8.512;2023-07-13T03:29:55;7.50;;;5.77;;
6442;SDS011;3254;47.372;8.512;2023-07-13T03:33:23;9.47;;;5.47;;
6442;SDS011;3254;47.372;8.512;2023-07-13T03:36:48;6.00;;;5.40;;
6442;SDS011;3254;47.372;8.512;2023-07-13T03:39:42;6.20;;;5.20;;
6442;SDS011;3254;47.372;8.512;2023-07-13T03:43:17;7.43;;;5.03;;
6442;SDS011;3254;47.372;8.512;2023-07-13T03:46:43;6.30;;;5.60;;
6442;SDS011;3254;47.372;8.512;2023-07-13T03:49:19;9.83;;;5.93;;
6442;SDS011;3254;47.372;8.512;2023-07-13T03:56:37;5.50;;;5.00;;
6442;SDS011;3254;47.372;8.512;2023-07-13T04:00:00;10.73;;;5.60;;
6442;SDS011;3254;47.372;8.512;2023-07-13T04:03:24;12.97;;;5.60;;
6442;SDS011;3254;47.372;8.512;2023-07-13T04:07:07;7.70;;;5.40;;
6442;SDS011;3254;47.372;8.512;2023-07-13T04:10:56;7.00;;;6.30;;
6442;SDS011;3254;47.372;8.512;2023-07-13T04:14:15;8.17;;;5.40;;
6442;SDS011;3254;47.372;8.512;2023-07-13T04:17:28;10.37;;;5.60;;
6442;SDS011;3254;47.372;8.512;2023-07-13T04:20:51;7.00;;;5.93;;
6442;SDS011;3254;47.372;8.512;2023-07-13T04:24:32;6.17;;;5.50;;
6442;SDS011;3254;47.372;8.512;2023-07-13T04:28:11;7.13;;;5.00;;
6442;SDS011;3254;47.372;8.512;2023-07-13T04:35:19;6.07;;;4.80;;
6442;SDS011;3254;47.372;8.512;2023-07-13T04:39:00;5.97;;;5.40;;
6442;SDS011;3254;47.372;8.512;2023-07-13T04:42:41;9.23;;;5.50;;
6442;SDS011;3254;47.372;8.512;2023-07-13T04:46:24;6.50;;;5.83;;
6442;SDS011;3254;47.372;8.512;2023-07-13T04:49:50;6.57;;;4.97;;
6442;SDS011;3254;47.372;8.512;2023-07-13T04:53:28;6.20;;;5.60;;
6442;SDS011;3254;47.372;8.512;2023-07-13T04:57:26;9.73;;;5.20;;
6442;SDS011;3254;47.372;8.512;2023-07-13T05:01:02;7.27;;;4.47;;
6442;SDS011;3254;47.372;8.512;2023-07-13T05:04:21;6.87;;;4.63;;
6442;SDS011;3254;47.372;8.512;2023-07-13T05:07:56;6.03;;;5.30;;
6442;SDS011;3254;47.372;8.512;2023-07-13T05:11:34;7.07;;;4.57;;
6442;SDS011;3254;47.372;8.512;2023-07-13T05:15:13;3.93;;;3.70;;
6442;SDS011;3254;47.372;8.512;2023-07-13T05:18:35;6.23;;;4.90;;
6442;SDS011;3254;47.372;8.512;2023-07-13T05:22:12;5.10;;;4.60;;
6442;SDS011;3254;47.372;8.512;2023-07-13T05:25:48;4.27;;;3.97;;
6442;SDS011;3254;47.372;8.512;2023-07-13T05:29:20;4.80;;;3.60;;
6442;SDS011;3254;47.372;8.512;2023-07-13T05:32:40;4.40;;;4.00;;
6442;SDS011;3254;47.372;8.512;2023-07-13T05:36:05;3.97;;;3.57;;
6442;SDS011;3254;47.372;8.512;2023-07-13T06:09:20;5.10;;;4.70;;
6442;SDS011;3254;47.372;8.512;2023-07-13T06:12:56;7.77;;;5.23;;
6442;SDS011;3254;47.372;8.512;2023-07-13T06:16:04;5.53;;;5.00;;
6442;SDS011;3254;47.372;8.512;2023-07-13T06:19:15;7.97;;;5.50;;
6442;SDS011;3254;47.372;8.512;2023-07-13T06:23:03;3.70;;;3.40;;
6442;SDS011;3254;47.372;8.512;2023-07-13T06:26:05;4.27;;;3.87;;
6442;SDS011;3254;47.372;8.512;2023-07-13T06:28:56;4.50;;;4.10;;
6442;SDS011;3254;47.372;8.512;2023-07-13T06:32:24;4.27;;;3.90;;
6442;SDS011;3254;47.372;8.512;2023-07-13T06:35:10;5.70;;;3.97;;
6442;SDS011;3254;47.372;8.512;2023-07-13T06:38:24;4.00;;;3.67;;
6442;SDS011;3254;47.372;8.512;2023-07-13T06:41:14;3.43;;;3.13;;
6442;SDS011;3254;47.372;8.512;2023-07-13T06:44:18;2.93;;;2.70;;
6442;SDS011;3254;47.372;8.512;2023-07-13T06:47:23;5.03;;;3.30;;
6442;SDS011;3254;47.372;8.512;2023-07-13T06:50:25;3.10;;;2.90;;
6442;SDS011;3254;47.372;8.512;2023-07-13T06:53:24;2.90;;;2.80;;
6442;SDS011;3254;47.372;8.512;2023-07-13T07:00:31;3.53;;;3.33;;
6442;SDS011;3254;47.372;8.512;2023-07-13T07:04:13;6.03;;;2.93;;
6442;SDS011;3254;47.372;8.512;2023-07-13T07:07:17;3.00;;;2.83;;
6442;SDS011;3254;47.372;8.512;2023-07-13T07:10:53;2.53;;;2.33;;
6442;SDS011;3254;47.372;8.512;2023-07-13T07:14:33;7.03;;;2.77;;
6442;SDS011;3254;47.372;8.512;2023-07-13T07:21:55;3.83;;;3.20;;
6442;SDS011;3254;47.372;8.512;2023-07-13T07:25:08;6.10;;;2.20;;
6442;SDS011;3254;47.372;8.512;2023-07-13T07:28:49;2.67;;;2.47;;
6442;SDS011;3254;47.372;8.512;2023-07-13T07:32:34;2.47;;;2.13;;
6442;SDS011;3254;47.372;8.512;2023-07-13T07:36:22;2.53;;;2.33;;
6442;SDS011;3254;47.372;8.512;2023-07-13T07:39:42;2.00;;;1.90;;
6442;SDS011;3254;47.372;8.512;2023-07-13T07:43:55;2.13;;;2.03;;
6442;SDS011;3254;47.372;8.512;2023-07-13T07:47:32;2.70;;;2.50;;
6442;SDS011;3254;47.372;8.512;2023-07-13T07:50:57;3.63;;;1.80;;
6442;SDS011;3254;47.372;8.512;2023-07-13T07:54:41;2.20;;;2.00;;
6442;SDS011;3254;47.372;8.512;2023-07-13T08:01:04;6.10;;;2.47;;
6442;SDS011;3254;47.372;8.512;2023-07-13T08:08:07;4.97;;;1.77;;
6442;SDS011;3254;47.372;8.512;2023-07-13T08:11:48;2.43;;;1.53;;
6442;SDS011;3254;47.372;8.512;2023-07-13T08:15:46;1.67;;;1.57;;
6442;SDS011;3254;47.372;8.512;2023-07-13T08:19:29;10.23;;;2.83;;
6442;SDS011;3254;47.372;8.512;2023-07-13T08:22:50;2.70;;;1.60;;
6442;SDS011;3254;47.372;8.512;2023-07-13T08:26:32;2.03;;;1.60;;
6442;SDS011;3254;47.372;8.512;2023-07-13T08:34:01;2.90;;;1.63;;
6442;SDS011;3254;47.372;8.512;2023-07-13T08:37:31;3.00;;;1.80;;
6442;SDS011;3254;47.372;8.512;2023-07-13T08:40:56;1.53;;;1.13;;
6442;SDS011;3254;47.372;8.512;2023-07-13T08:48:32;1.67;;;1.57;;
6442;SDS011;3254;47.372;8.512;2023-07-13T08:52:30;1.87;;;1.73;;
6442;SDS011;3254;47.372;8.512;2023-07-13T08:59:49;1.20;;;1.10;;
6442;SDS011;3254;47.372;8.512;2023-07-13T09:03:36;1.47;;;1.10;;
6442;SDS011;3254;47.372;8.512;2023-07-13T09:07:21;1.90;;;1.63;;
6442;SDS011;3254;47.372;8.512;2023-07-13T09:18:33;2.60;;;1.50;;
6442;SDS011;3254;47.372;8.512;2023-07-13T09:22:10;5.37;;;1.40;;
6442;SDS011;3254;47.372;8.512;2023-07-13T09:37:29;5.23;;;2.60;;
6442;SDS011;3254;47.372;8.512;2023-07-13T09:47:38;5.20;;;2.07;;
6442;SDS011;3254;47.372;8.512;2023-07-13T10:02:35;4.87;;;2.43;;
6442;SDS011;3254;47.372;8.512;2023-07-13T10:06:23;2.40;;;2.00;;
6442;SDS011;3254;47.372;8.512;2023-07-13T10:14:01;2.83;;;2.53;;
6442;SDS011;3254;47.372;8.512;2023-07-13T10:17:49;4.50;;;2.57;;
6442;SDS011;3254;47.372;8.512;2023-07-13T10:21:36;2.90;;;2.43;;
6442;SDS011;3254;47.372;8.512;2023-07-13T10:29:23;4.20;;;2.23;;
6442;SDS011;3254;47.372;8.512;2023-07-13T10:33:10;2.10;;;2.00;;
6442;SDS011;3254;47.372;8.512;2023-07-13T10:36:58;2.60;;;1.70;;
6442;SDS011;3254;47.372;8.512;2023-07-13T10:40:34;2.00;;;1.90;;
6442;SDS011;3254;47.372;8.512;2023-07-13T10:52:03;2.40;;;2.20;;
6442;SDS011;3254;47.372;8.512;2023-07-13T10:55:33;3.20;;;1.50;;
6442;SDS011;3254;47.372;8.512;2023-07-13T10:59:29;2.80;;;2.13;;
6442;SDS011;3254;47.372;8.512;2023-07-13T11:06:56;2.40;;;1.70;;
6442;SDS011;3254;47.372;8.512;2023-07-13T11:14:03;1.50;;;1.40;;
6442;SDS011;3254;47.372;8.512;2023-07-13T11:17:54;1.63;;;1.30;;
6442;SDS011;3254;47.372;8.512;2023-07-13T11:22:00;4.83;;;1.63;;
6442;SDS011;3254;47.372;8.512;2023-07-13T11:31:32;4.83;;;1.77;;
6442;SDS011;3254;47.372;8.512;2023-07-13T11:42:25;1.77;;;1.53;;
6442;SDS011;3254;47.372;8.512;2023-07-13T11:45:46;1.63;;;1.53;;
6442;SDS011;3254;47.372;8.512;2023-07-13T11:52:50;7.60;;;3.70;;
6442;SDS011;3254;47.372;8.512;2023-07-13T12:00:18;9.50;;;1.73;;
6442;SDS011;3254;47.372;8.512;2023-07-13T12:07:38;3.10;;;1.90;;
6442;SDS011;3254;47.372;8.512;2023-07-13T12:11:35;3.33;;;2.13;;
6442;SDS011;3254;47.372;8.512;2023-07-13T12:15:15;21.13;;;3.60;;
6442;SDS011;3254;47.372;8.512;2023-07-13T12:29:56;6.63;;;1.77;;
6442;SDS011;3254;47.372;8.512;2023-07-13T12:37:01;3.10;;;1.83;;
6442;SDS011;3254;47.372;8.512;2023-07-13T12:40:26;1.77;;;1.10;;
6442;SDS011;3254;47.372;8.512;2023-07-13T12:43:50;1.43;;;1.33;;
6442;SDS011;3254;47.372;8.512;2023-07-13T12:47:29;1.30;;;1.20;;
6442;SDS011;3254;47.372;8.512;2023-07-13T12:51:01;2.13;;;1.10;;
6442;SDS011;3254;47.372;8.512;2023-07-13T12:54:15;9.37;;;1.97;;
6442;SDS011;3254;47.372;8.512;2023-07-13T13:16:52;8.00;;;2.10;;
6442;SDS011;3254;47.372;8.512;2023-07-13T13:24:27;2.10;;;1.90;;
6442;SDS011;3254;47.372;8.512;2023-07-13T13:28:11;2.63;;;2.10;;
6442;SDS011;3254;47.372;8.512;2023-07-13T13:32:15;5.00;;;2.60;;
6442;SDS011;3254;47.372;8.512;2023-07-13T13:43:24;6.23;;;2.00;;
6442;SDS011;3254;47.372;8.512;2023-07-13T13:46:52;3.37;;;1.90;;
6442;SDS011;3254;47.372;8.512;2023-07-13T13:50:28;4.23;;;1.57;;
6442;SDS011;3254;47.372;8.512;2023-07-13T13:54:14;3.50;;;2.00;;
6442;SDS011;3254;47.372;8.512;2023-07-13T13:58:03;2.03;;;1.80;;
6442;SDS011;3254;47.372;8.512;2023-07-13T14:01:39;4.97;;;2.00;;
6442;SDS011;3254;47.372;8.512;2023-07-13T14:05:25;3.03;;;1.43;;
6442;SDS011;3254;47.372;8.512;2023-07-13T14:08:52;6.97;;;1.70;;
6442;SDS011;3254;47.372;8.512;2023-07-13T14:12:34;2.23;;;1.83;;
6442;SDS011;3254;47.372;8.512;2023-07-13T14:19:40;3.97;;;2.37;;
6442;SDS011;3254;47.372;8.512;2023-07-13T14:22:32;2.80;;;1.90;;
6442;SDS011;3254;47.372;8.512;2023-07-13T14:25:50;5.70;;;2.03;;
6442;SDS011;3254;47.372;8.512;2023-07-13T14:29:41;1.43;;;1.33;;
6442;SDS011;3254;47.372;8.512;2023-07-13T16:16:58;5.20;;;1.70;;
6442;SDS011;3254;47.372;8.512;2023-07-13T16:19:23;1.20;;;1.10;;
6442;SDS011;3254;47.372;8.512;2023-07-13T16:21:53;3.37;;;1.53;;
6442;SDS011;3254;47.372;8.512;2023-07-13T16:24:21;1.40;;;1.30;;
6442;SDS011;3254;47.372;8.512;2023-07-13T16:26:51;2.43;;;1.50;;
6442;SDS011;3254;47.372;8.512;2023-07-13T16:29:18;1.47;;;1.37;;
6442;SDS011;3254;47.372;8.512;2023-07-13T16:32:05;2.90;;;1.60;;
6442;SDS011;3254;47.372;8.512;2023-07-13T16:34:53;3.80;;;1.30;;
6442;SDS011;3254;47.372;8.512;2023-07-13T16:37:21;2.03;;;1.33;;
6442;SDS011;3254;47.372;8.512;2023-07-13T16:39:52;1.70;;;1.60;;
6442;SDS011;3254;47.372;8.512;2023-07-13T16:42:19;4.20;;;1.40;;
6442;SDS011;3254;47.372;8.512;2023-07-13T16:44:46;2.00;;;1.83;;
6442;SDS011;3254;47.372;8.512;2023-07-13T16:47:12;1.43;;;1.33;;
6442;SDS011;3254;47.372;8.512;2023-07-13T16:49:39;2.40;;;1.00;;
6442;SDS011;3254;47.372;8.512;2023-07-13T16:52:08;1.50;;;1.03;;
6442;SDS011;3254;47.372;8.512;2023-07-13T16:54:37;3.33;;;1.20;;
6442;SDS011;3254;47.372;8.512;2023-07-13T16:57:09;3.03;;;1.30;;
6442;SDS011;3254;47.372;8.512;2023-07-13T16:59:41;2.00;;;1.20;;
6442;SDS011;3254;47.372;8.512;2023-07-13T17:04:49;2.30;;;1.20;;
6442;SDS011;3254;47.372;8.512;2023-07-13T17:07:15;4.63;;;1.03;;
6442;SDS011;3254;47.372;8.512;2023-07-13T17:09:44;3.00;;;1.33;;
6442;SDS011;3254;47.372;8.512;2023-07-13T17:12:11;2.70;;;1.37;;
6442;SDS011;3254;47.372;8.512;2023-07-13T17:14:37;2.50;;;1.27;;
6442;SDS011;3254;47.372;8.512;2023-07-13T17:17:09;1.60;;;1.50;;
6442;SDS011;3254;47.372;8.512;2023-07-13T17:19:40;1.57;;;1.47;;
6442;SDS011;3254;47.372;8.512;2023-07-13T17:22:10;1.37;;;1.27;;
6442;SDS011;3254;47.372;8.512;2023-07-13T17:24:42;4.97;;;1.20;;
6442;SDS011;3254;47.372;8.512;2023-07-13T17:27:09;1.97;;;1.17;;
6442;SDS011;3254;47.372;8.512;2023-07-13T17:29:35;1.57;;;1.43;;
6442;SDS011;3254;47.372;8.512;2023-07-13T17:32:02;5.67;;;1.70;;
6442;SDS011;3254;47.372;8.512;2023-07-13T17:34:31;8.80;;;1.50;;
6442;SDS011;3254;47.372;8.512;2023-07-13T17:36:58;4.80;;;1.93;;
6442;SDS011;3254;47.372;8.512;2023-07-13T17:39:25;4.20;;;1.23;;
6442;SDS011;3254;47.372;8.512;2023-07-13T17:41:51;2.83;;;1.70;;
6442;SDS011;3254;47.372;8.512;2023-07-13T17:44:17;4.57;;;1.80;;
6442;SDS011;3254;47.372;8.512;2023-07-13T17:46:44;1.93;;;1.40;;
6442;SDS011;3254;47.372;8.512;2023-07-13T17:49:15;14.20;;;1.60;;
6442;SDS011;3254;47.372;8.512;2023-07-13T17:51:57;3.67;;;2.17;;
6442;SDS011;3254;47.372;8.512;2023-07-13T17:54:30;3.37;;;1.60;;
6442;SDS011;3254;47.372;8.512;2023-07-13T17:56:56;5.67;;;1.23;;
6442;SDS011;3254;47.372;8.512;2023-07-13T17:59:22;4.93;;;1.07;;
6442;SDS011;3254;47.372;8.512;2023-07-13T18:01:48;4.13;;;1.33;;
6442;SDS011;3254;47.372;8.512;2023-07-13T18:04:17;1.43;;;1.33;;
6442;SDS011;3254;47.372;8.512;2023-07-13T18:06:47;3.73;;;1.70;;
6442;SDS011;3254;47.372;8.512;2023-07-13T18:09:32;1.37;;;1.27;;
6442;SDS011;3254;47.372;8.512;2023-07-13T18:11:58;2.07;;;1.67;;
6442;SDS011;3254;47.372;8.512;2023-07-13T18:14:25;1.67;;;1.50;;
6442;SDS011;3254;47.372;8.512;2023-07-13T18:16:54;2.60;;;1.40;;
6442;SDS011;3254;47.372;8.512;2023-07-13T18:19:32;5.17;;;1.70;;
6442;SDS011;3254;47.372;8.512;2023-07-13T18:22:10;1.40;;;1.30;;
6442;SDS011;3254;47.372;8.512;2023-07-13T18:24:40;3.93;;;1.77;;
6442;SDS011;3254;47.372;8.512;2023-07-13T18:27:07;6.23;;;1.83;;
6442;SDS011;3254;47.372;8.512;2023-07-13T18:29:33;3.83;;;2.00;;
6442;SDS011;3254;47.372;8.512;2023-07-13T18:31:59;4.60;;;1.90;;
6442;SDS011;3254;47.372;8.512;2023-07-13T18:34:34;2.50;;;1.93;;
6442;SDS011;3254;47.372;8.512;2023-07-13T18:37:14;2.07;;;1.50;;
6442;SDS011;3254;47.372;8.512;2023-07-13T18:39:45;1.90;;;1.70;;
6442;SDS011;3254;47.372;8.512;2023-07-13T18:42:15;3.63;;;1.80;;
6442;SDS011;3254;47.372;8.512;2023-07-13T18:44:41;5.57;;;2.30;;
6442;SDS011;3254;47.372;8.512;2023-07-13T18:47:10;4.60;;;1.87;;
6442;SDS011;3254;47.372;8.512;2023-07-13T18:49:47;1.50;;;1.30;;
6442;SDS011;3254;47.372;8.512;2023-07-13T18:52:18;2.43;;;1.13;;
6442;SDS011;3254;47.372;8.512;2023-07-13T18:54:44;1.90;;;1.70;;
6442;SDS011;3254;47.372;8.512;2023-07-13T18:57:11;3.17;;;2.07;;
6442;SDS011;3254;47.372;8.512;2023-07-13T18:59:38;4.70;;;2.10;;
6442;SDS011;3254;47.372;8.512;2023-07-13T19:02:10;3.27;;;2.73;;
6442;SDS011;3254;47.372;8.512;2023-07-13T19:04:37;5.00;;;2.13;;
6442;SDS011;3254;47.372;8.512;2023-07-13T19:07:04;2.00;;;1.90;;
6442;SDS011;3254;47.372;8.512;2023-07-13T19:09:33;2.20;;;1.97;;
6442;SDS011;3254;47.372;8.512;2023-07-13T19:11:58;4.40;;;1.90;;
6442;SDS011;3254;47.372;8.512;2023-07-13T19:14:24;2.03;;;1.90;;
6442;SDS011;3254;47.372;8.512;2023-07-13T19:16:50;2.83;;;2.33;;
6442;SDS011;3254;47.372;8.512;2023-07-13T19:19:21;5.13;;;1.97;;
6442;SDS011;3254;47.372;8.512;2023-07-13T19:21:47;2.40;;;2.20;;
6442;SDS011;3254;47.372;8.512;2023-07-13T19:24:15;4.50;;;2.40;;
6442;SDS011;3254;47.372;8.512;2023-07-13T19:26:45;3.03;;;2.10;;
6442;SDS011;3254;47.372;8.512;2023-07-13T19:29:15;2.30;;;2.10;;
6442;SDS011;3254;47.372;8.512;2023-07-13T19:31:42;3.33;;;2.37;;
6442;SDS011;3254;47.372;8.512;2023-07-13T19:37:00;3.27;;;2.20;;
6442;SDS011;3254;47.372;8.512;2023-07-13T19:39:39;6.50;;;2.50;;
6442;SDS011;3254;47.372;8.512;2023-07-13T19:42:24;5.03;;;2.40;;
6442;SDS011;3254;47.372;8.512;2023-07-13T19:44:54;7.03;;;2.83;;
6442;SDS011;3254;47.372;8.512;2023-07-13T19:47:21;4.20;;;3.20;;
6442;SDS011;3254;47.372;8.512;2023-07-13T19:49:48;5.57;;;3.27;;
6442;SDS011;3254;47.372;8.512;2023-07-13T19:52:18;4.63;;;2.73;;
6442;SDS011;3254;47.372;8.512;2023-07-13T19:54:48;4.70;;;2.73;;
6442;SDS011;3254;47.372;8.512;2023-07-13T19:57:17;6.30;;;2.07;;
6442;SDS011;3254;47.372;8.512;2023-07-13T19:59:51;3.83;;;2.07;;
6442;SDS011;3254;47.372;8.512;2023-07-13T20:02:19;6.07;;;2.43;;
6442;SDS011;3254;47.372;8.512;2023-07-13T20:04:48;7.83;;;2.83;;
6442;SDS011;3254;47.372;8.512;2023-07-13T20:07:17;8.40;;;2.57;;
6442;SDS011;3254;47.372;8.512;2023-07-13T20:09:45;4.60;;;2.30;;
6442;SDS011;3254;47.372;8.512;2023-07-13T20:12:19;2.50;;;1.87;;
6442;SDS011;3254;47.372;8.512;2023-07-13T20:14:49;9.80;;;2.80;;
6442;SDS011;3254;47.372;8.512;2023-07-13T20:17:28;4.70;;;2.90;;
6442;SDS011;3254;47.372;8.512;2023-07-13T20:20:00;3.53;;;2.73;;
6442;SDS011;3254;47.372;8.512;2023-07-13T20:22:41;3.67;;;2.80;;
6442;SDS011;3254;47.372;8.512;2023-07-13T20:25:13;3.17;;;2.97;;
6442;SDS011;3254;47.372;8.512;2023-07-13T20:27:44;6.93;;;4.10;;
6442;SDS011;3254;47.372;8.512;2023-07-13T20:30:10;9.97;;;5.40;;
6442;SDS011;3254;47.372;8.512;2023-07-13T20:32:37;5.00;;;4.30;;
6442;SDS011;3254;47.372;8.512;2023-07-13T20:35:04;5.00;;;3.10;;
6442;SDS011;3254;47.372;8.512;2023-07-13T20:37:48;3.00;;;2.53;;
6442;SDS011;3254;47.372;8.512;2023-07-13T20:40:16;5.20;;;2.30;;
6442;SDS011;3254;47.372;8.512;2023-07-13T20:42:45;7.73;;;2.50;;
6442;SDS011;3254;47.372;8.512;2023-07-13T20:45:11;11.33;;;3.37;;
6442;SDS011;3254;47.372;8.512;2023-07-13T20:47:37;6.53;;;2.70;;
6442;SDS011;3254;47.372;8.512;2023-07-13T20:50:24;4.87;;;3.93;;
6442;SDS011;3254;47.372;8.512;2023-07-13T20:52:53;7.97;;;3.10;;
6442;SDS011;3254;47.372;8.512;2023-07-13T20:55:21;4.57;;;3.57;;
6442;SDS011;3254;47.372;8.512;2023-07-13T20:57:49;9.30;;;4.30;;
6442;SDS011;3254;47.372;8.512;2023-07-13T21:00:16;8.93;;;4.70;;
6442;SDS011;3254;47.372;8.512;2023-07-13T21:02:44;4.63;;;4.13;;
6442;SDS011;3254;47.372;8.512;2023-07-13T21:05:14;8.40;;;4.00;;
6442;SDS011;3254;47.372;8.512;2023-07-13T21:07:42;4.17;;;3.87;;
6442;SDS011;3254;47.372;8.512;2023-07-13T21:12:43;5.03;;;4.40;;
6442;SDS011;3254;47.372;8.512;2023-07-13T21:15:09;3.77;;;3.43;;
6442;SDS011;3254;47.372;8.512;2023-07-13T21:17:36;9.20;;;4.10;;
6442;SDS011;3254;47.372;8.512;2023-07-13T21:20:08;5.93;;;4.20;;
6442;SDS011;3254;47.372;8.512;2023-07-13T21:22:46;6.30;;;3.70;;
6442;SDS011;3254;47.372;8.512;2023-07-13T21:25:13;12.17;;;4.20;;
6442;SDS011;3254;47.372;8.512;2023-07-13T21:27:40;5.30;;;3.60;;
6442;SDS011;3254;47.372;8.512;2023-07-13T21:30:07;5.40;;;3.50;;
6442;SDS011;3254;47.372;8.512;2023-07-13T21:32:37;6.90;;;3.43;;
6442;SDS011;3254;47.372;8.512;2023-07-13T21:35:02;4.23;;;3.23;;
6442;SDS011;3254;47.372;8.512;2023-07-13T21:37:31;4.87;;;4.40;;
6442;SDS011;3254;47.372;8.512;2023-07-13T21:39:56;14.67;;;4.27;;
6442;SDS011;3254;47.372;8.512;2023-07-13T21:42:22;5.90;;;4.40;;
6442;SDS011;3254;47.372;8.512;2023-07-13T21:44:47;4.90;;;3.50;;
6442;SDS011;3254;47.372;8.512;2023-07-13T21:47:13;3.30;;;2.83;;
6442;SDS011;3254;47.372;8.512;2023-07-13T21:49:39;5.60;;;3.63;;
6442;SDS011;3254;47.372;8.512;2023-07-13T21:52:17;10.93;;;3.60;;
6442;SDS011;3254;47.372;8.512;2023-07-13T21:54:42;6.20;;;3.13;;
6442;SDS011;3254;47.372;8.512;2023-07-13T21:57:14;10.40;;;3.47;;
6442;SDS011;3254;47.372;8.512;2023-07-13T21:59:40;8.83;;;3.73;;
6442;SDS011;3254;47.372;8.512;2023-07-13T22:02:12;5.20;;;4.30;;
6442;SDS011;3254;47.372;8.512;2023-07-13T22:04:38;8.93;;;3.50;;
6442;SDS011;3254;47.372;8.512;2023-07-13T22:07:04;6.20;;;3.27;;
6442;SDS011;3254;47.372;8.512;2023-07-13T22:09:30;4.33;;;2.90;;
6442;SDS011;3254;47.372;8.512;2023-07-13T22:11:55;7.47;;;3.33;;
6442;SDS011;3254;47.372;8.512;2023-07-13T22:14:22;6.20;;;2.90;;
6442;SDS011;3254;47.372;8.512;2023-07-13T22:16:49;4.00;;;3.60;;
6442;SDS011;3254;47.372;8.512;2023-07-13T22:19:15;3.83;;;3.43;;
6442;SDS011;3254;47.372;8.512;2023-07-13T22:21:43;7.73;;;3.30;;
6442;SDS011;3254;47.372;8.512;2023-07-13T22:24:11;9.63;;;4.30;;
6442;SDS011;3254;47.372;8.512;2023-07-13T22:26:41;7.97;;;3.57;;
6442;SDS011;3254;47.372;8.512;2023-07-13T22:29:17;3.60;;;3.30;;
6442;SDS011;3254;47.372;8.512;2023-07-13T22:31:46;5.70;;;5.10;;
6442;SDS011;3254;47.372;8.512;2023-07-13T22:34:14;4.27;;;3.97;;
6442;SDS011;3254;47.372;8.512;2023-07-13T22:36:43;3.13;;;2.90;;
6442;SDS011;3254;47.372;8.512;2023-07-13T22:39:13;4.30;;;3.10;;
6442;SDS011;3254;47.372;8.512;2023-07-13T22:41:42;3.80;;;3.50;;
6442;SDS011;3254;47.372;8.512;2023-07-13T22:44:10;3.20;;;2.90;;
6442;SDS011;3254;47.372;8.512;2023-07-13T22:46:54;12.70;;;3.03;;
6442;SDS011;3254;47.372;8.512;2023-07-13T22:49:22;2.90;;;2.67;;
6442;SDS011;3254;47.372;8.512;2023-07-13T22:51:56;4.27;;;2.83;;
6442;SDS011;3254;47.372;8.512;2023-07-13T22:54:27;4.30;;;3.10;;
6442;SDS011;3254;47.372;8.512;2023-07-13T22:56:56;3.43;;;2.80;;
6442;SDS011;3254;47.372;8.512;2023-07-13T22:59:22;4.73;;;2.90;;
6442;SDS011;3254;47.372;8.512;2023-07-13T23:01:47;4.83;;;3.10;;
6442;SDS011;3254;47.372;8.512;2023-07-13T23:04:17;5.63;;;2.77;;
6442;SDS011;3254;47.372;8.512;2023-07-13T23:06:54;7.40;;;2.40;;
6442;SDS011;3254;47.372;8.512;2023-07-13T23:09:21;4.60;;;2.30;;
6442;SDS011;3254;47.372;8.512;2023-07-13T23:11:49;3.30;;;2.40;;
6442;SDS011;3254;47.372;8.512;2023-07-13T23:14:15;8.83;;;2.53;;
6442;SDS011;3254;47.372;8.512;2023-07-13T23:16:41;6.70;;;2.60;;
6442;SDS011;3254;47.372;8.512;2023-07-13T23:19:28;2.40;;;2.20;;
6442;SDS011;3254;47.372;8.512;2023-07-13T23:22:18;2.60;;;2.30;;
6442;SDS011;3254;47.372;8.512;2023-07-13T23:24:50;9.77;;;2.20;;
6442;SDS011;3254;47.372;8.512;2023-07-13T23:27:17;2.50;;;2.10;;
6442;SDS011;3254;47.372;8.512;2023-07-13T23:29:43;2.30;;;1.90;;
6442;SDS011;3254;47.372;8.512;2023-07-13T23:32:10;8.63;;;2.70;;
6442;SDS011;3254;47.372;8.512;2023-07-13T23:34:36;3.73;;;1.97;;
6442;SDS011;3254;47.372;8.512;2023-07-13T23:37:01;4.90;;;2.27;;
6442;SDS011;3254;47.372;8.512;2023-07-13T23:39:28;2.10;;;1.90;;
6442;SDS011;3254;47.372;8.512;2023-07-13T23:41:55;7.33;;;2.30;;
6442;SDS011;3254;47.372;8.512;2023-07-13T23:44:21;3.50;;;2.30;;
6442;SDS011;3254;47.372;8.512;2023-07-13T23:46:48;5.03;;;2.60;;
6442;SDS011;3254;47.372;8.512;2023-07-13T23:51:49;5.63;;;2.77;;
6442;SDS011;3254;47.372;8.512;2023-07-13T23:54:16;2.60;;;2.10;;
6442;SDS011;3254;47.372;8.512;2023-07-13T23:56:42;2.20;;;2.00;;
6442;SDS011;3254;47.372;8.512;2023-07-13T23:59:09;7.70;;;2.77;;
